Time;durP1;ratioP1;P1;durP2;ratioP2;P2;SDS_P1;SDS_P2;PMS_P1;PMS_P2;Temp;Humidity;BMP_temperature;BMP_pressure;BME280_temperature;BME280_humidity;BME280_pressure;Samples;Min_cycle;Max_cycle;Signal;HPM_P1;HPM_P2
2022/12/16 00:00:25;;;;;;;34.70;22.55;;;-0.30;99.90;;;;;;5089875;27;20422;-66
2022/12/16 00:02:51;;;;;;;32.28;22.85;;;-0.30;99.90;;;;;;5094954;27;20490;-66
2022/12/16 00:05:21;;;;;;;33.40;22.80;;;-0.30;99.90;;;;;;5089799;28;20055;-66
2022/12/16 00:07:47;;;;;;;33.03;23.23;;;-0.30;99.90;;;;;;5087550;28;20178;-66
2022/12/16 00:10:13;;;;;;;33.05;23.38;;;-0.20;99.90;;;;;;5082053;28;20063;-66
2022/12/16 00:12:39;;;;;;;36.03;24.52;;;-0.30;99.90;;;;;;5086728;27;20164;-66
2022/12/16 00:15:05;;;;;;;35.50;23.48;;;-0.20;99.90;;;;;;5091243;28;20052;-67
2022/12/16 00:17:30;;;;;;;35.95;24.10;;;-0.20;99.90;;;;;;5089119;27;20043;-67
2022/12/16 00:19:56;;;;;;;34.47;24.05;;;-0.20;99.90;;;;;;5088089;28;20398;-67
2022/12/16 00:22:22;;;;;;;39.53;25.52;;;-0.10;99.90;;;;;;5093525;28;20043;-66
2022/12/16 00:24:48;;;;;;;34.60;23.30;;;-0.10;99.90;;;;;;5129550;27;20474;-66
2022/12/16 00:27:13;;;;;;;35.47;24.45;;;-0.10;99.90;;;;;;5092983;28;20168;-66
2022/12/16 00:29:39;;;;;;;36.97;23.73;;;-0.10;99.90;;;;;;5095594;28;20470;-66
2022/12/16 00:32:05;;;;;;;37.92;23.88;;;-0.10;99.90;;;;;;5092639;28;20089;-66
2022/12/16 00:34:32;;;;;;;34.50;24.52;;;-0.10;99.90;;;;;;5085666;27;20511;-66
2022/12/16 00:36:58;;;;;;;35.67;24.10;;;-0.10;99.90;;;;;;5090046;28;20043;-66
2022/12/16 00:39:23;;;;;;;36.08;25.90;;;-0.10;99.90;;;;;;5074349;28;20044;-66
2022/12/16 00:41:49;;;;;;;35.20;25.23;;;-0.10;99.90;;;;;;5093140;27;20043;-66
2022/12/16 00:44:15;;;;;;;39.55;25.85;;;-0.10;99.90;;;;;;5086443;27;20040;-66
2022/12/16 00:46:41;;;;;;;40.08;27.58;;;-0.10;99.90;;;;;;5121899;27;20418;-66
2022/12/16 00:49:06;;;;;;;41.53;27.70;;;-0.10;99.90;;;;;;5119264;27;20120;-66
2022/12/16 00:51:32;;;;;;;39.92;26.08;;;-0.10;99.90;;;;;;5119749;27;20169;-66
2022/12/16 00:53:57;;;;;;;39.53;25.92;;;-0.20;99.90;;;;;;5086627;28;20032;-67
2022/12/16 00:56:24;;;;;;;37.17;26.38;;;-0.20;99.90;;;;;;5089625;27;20039;-66
2022/12/16 00:58:50;;;;;;;45.42;26.88;;;-0.30;99.90;;;;;;5069332;28;20074;-66
2022/12/16 01:01:15;;;;;;;40.70;26.67;;;-0.30;99.90;;;;;;5118216;27;20043;-66
2022/12/16 01:03:41;;;;;;;38.05;26.15;;;-0.30;99.90;;;;;;5076798;27;20047;-66
2022/12/16 01:06:13;;;;;;;38.40;25.70;;;-0.30;99.90;;;;;;5124233;27;20040;-66
2022/12/16 01:08:47;;;;;;;37.97;26.13;;;-0.30;99.90;;;;;;5091865;28;20559;-67
2022/12/16 01:11:17;;;;;;;35.92;25.77;;;-0.20;99.90;;;;;;5118888;27;20047;-66
2022/12/16 01:13:43;;;;;;;40.55;26.45;;;-0.10;99.90;;;;;;5087737;27;20056;-67
2022/12/16 01:16:09;;;;;;;40.00;27.58;;;-0.10;99.90;;;;;;5070705;28;20122;-66
2022/12/16 01:18:35;;;;;;;36.38;25.65;;;-0.10;99.90;;;;;;5086051;28;20686;-66
2022/12/16 01:21:06;;;;;;;42.05;27.23;;;-0.10;99.90;;;;;;5064253;28;20065;-66
2022/12/16 01:23:32;;;;;;;38.60;26.83;;;-0.10;99.90;;;;;;5070186;28;20375;-67
2022/12/16 01:25:59;;;;;;;37.35;25.88;;;0.00;99.90;;;;;;5091203;27;20047;-66
2022/12/16 01:28:26;;;;;;;39.33;26.48;;;0.00;99.90;;;;;;5120455;27;20119;-66
2022/12/16 01:30:56;;;;;;;35.28;25.20;;;0.10;99.90;;;;;;5085681;28;20051;-66
2022/12/16 01:33:23;;;;;;;37.53;25.27;;;0.10;99.90;;;;;;5120592;27;20043;-66
2022/12/16 01:35:48;;;;;;;40.30;25.58;;;0.10;99.90;;;;;;5082630;27;20398;-66
2022/12/16 01:38:14;;;;;;;39.22;26.23;;;0.10;99.90;;;;;;5086752;28;20047;-66
2022/12/16 01:40:40;;;;;;;38.58;24.55;;;0.10;99.90;;;;;;5121605;27;20132;-66
2022/12/16 01:43:11;;;;;;;37.63;25.10;;;0.10;99.90;;;;;;5068667;28;20039;-66
2022/12/16 01:45:37;;;;;;;35.55;25.30;;;0.10;99.90;;;;;;5120807;27;20028;-66
2022/12/16 01:48:44;;;;;;;37.25;25.08;;;0.20;99.90;;;;;;5090760;28;20558;-67
2022/12/16 01:51:27;;;;;;;34.13;24.73;;;0.20;99.90;;;;;;5011379;28;20136;-66
2022/12/16 01:53:57;;;;;;;43.03;26.27;;;0.20;99.90;;;;;;5044784;28;20052;-66
2022/12/16 01:56:26;;;;;;;39.55;26.13;;;0.30;99.90;;;;;;5011976;28;20609;-67
2022/12/16 01:58:53;;;;;;;34.67;24.70;;;0.30;99.90;;;;;;5041497;28;20037;-66
2022/12/16 02:01:19;;;;;;;37.67;25.48;;;0.30;99.90;;;;;;5005877;28;20053;-66
2022/12/16 02:03:46;;;;;;;36.65;24.90;;;0.30;99.90;;;;;;5036814;28;20037;-66
2022/12/16 02:06:12;;;;;;;35.92;24.48;;;0.30;99.90;;;;;;5035123;28;20725;-66
2022/12/16 02:08:37;;;;;;;37.05;25.00;;;0.30;99.90;;;;;;5021999;28;20045;-66
2022/12/16 02:11:12;;;;;;;36.38;25.73;;;0.40;99.90;;;;;;5006004;28;20049;-67
2022/12/16 02:13:43;;;;;;;36.58;24.42;;;0.40;99.90;;;;;;5041537;28;20518;-67
2022/12/16 02:16:20;;;;;;;37.88;24.40;;;0.40;99.90;;;;;;5026079;28;20096;-66
2022/12/16 02:19:19;;;;;;;36.60;24.73;;;0.40;99.90;;;;;;5074314;28;20037;-66
2022/12/16 02:22:05;;;;;;;35.22;23.67;;;0.30;99.90;;;;;;5025285;28;20122;-66
2022/12/16 02:24:43;;;;;;;38.65;25.75;;;0.30;99.90;;;;;;5027096;28;20051;-66
2022/12/16 02:27:29;;;;;;;39.92;26.42;;;0.30;99.90;;;;;;5033250;28;20040;-66
2022/12/16 02:30:24;;;;;;;37.28;24.35;;;0.30;99.90;;;;;;5069773;28;20036;-66
2022/12/16 02:33:40;;;;;;;38.13;26.20;;;0.30;99.90;;;;;;5098371;28;20136;-66
2022/12/16 02:36:35;;;;;;;38.10;25.85;;;0.20;99.90;;;;;;5053186;28;20056;-66
2022/12/16 02:39:07;;;;;;;35.90;25.55;;;0.20;99.90;;;;;;4947632;28;20534;-66
2022/12/16 02:41:33;;;;;;;40.73;26.17;;;0.20;99.90;;;;;;4933965;29;20055;-66
2022/12/16 02:44:05;;;;;;;38.67;25.60;;;0.20;99.90;;;;;;4933469;28;20107;-67
2022/12/16 02:46:37;;;;;;;38.15;25.65;;;0.20;99.90;;;;;;4933855;29;20400;-66
2022/12/16 02:49:29;;;;;;;41.13;26.17;;;0.30;99.90;;;;;;4933223;29;20117;-66
2022/12/16 02:51:56;;;;;;;39.88;25.65;;;0.30;99.90;;;;;;4949919;28;20330;-66
2022/12/16 02:54:22;;;;;;;35.50;25.83;;;0.30;99.90;;;;;;4932432;28;20050;-66
2022/12/16 02:56:48;;;;;;;34.78;25.30;;;0.30;99.90;;;;;;4928841;28;21002;-66
2022/12/16 02:59:19;;;;;;;36.80;25.70;;;0.30;99.90;;;;;;4924550;28;20059;-66
2022/12/16 03:01:57;;;;;;;36.72;24.48;;;0.30;99.90;;;;;;4921989;28;20048;-66
2022/12/16 03:04:29;;;;;;;39.63;26.17;;;0.30;99.90;;;;;;4920139;28;20071;-66
2022/12/16 03:06:59;;;;;;;33.67;24.00;;;0.40;99.90;;;;;;4928351;28;20182;-66
2022/12/16 03:09:31;;;;;;;34.15;23.92;;;0.40;99.90;;;;;;4929438;28;20102;-66
2022/12/16 03:11:58;;;;;;;35.57;23.03;;;0.40;99.90;;;;;;4923273;28;20062;-66
2022/12/16 03:14:27;;;;;;;33.92;24.05;;;0.40;99.90;;;;;;4958294;28;20383;-66
2022/12/16 03:16:54;;;;;;;36.03;23.73;;;0.30;99.90;;;;;;5085711;28;20052;-66
2022/12/16 03:19:21;;;;;;;36.38;24.35;;;0.30;99.90;;;;;;5124798;27;20413;-66
2022/12/16 03:22:08;;;;;;;34.20;24.25;;;0.30;99.90;;;;;;5072801;28;20086;-67
2022/12/16 03:24:35;;;;;;;29.63;21.58;;;0.30;99.90;;;;;;5106543;28;20127;-66
2022/12/16 03:27:30;;;;;;;36.35;23.23;;;0.30;99.90;;;;;;5121598;27;20044;-66
2022/12/16 03:30:08;;;;;;;32.55;22.55;;;0.40;99.90;;;;;;5091938;28;20141;-66
2022/12/16 03:32:40;;;;;;;32.05;21.63;;;0.40;99.90;;;;;;5109285;28;20069;-66
2022/12/16 03:35:18;;;;;;;32.45;22.25;;;0.40;99.90;;;;;;5087569;28;20416;-66
2022/12/16 03:37:47;;;;;;;33.25;22.92;;;0.30;99.90;;;;;;5120676;27;20036;-66
2022/12/16 03:40:13;;;;;;;30.42;22.48;;;0.30;99.90;;;;;;5125444;27;20046;-66
2022/12/16 03:42:41;;;;;;;32.17;22.75;;;0.30;99.90;;;;;;5093023;28;20100;-66
2022/12/16 03:45:11;;;;;;;30.40;22.67;;;0.40;99.90;;;;;;5110110;28;20057;-66
2022/12/16 03:47:37;;;;;;;32.58;23.23;;;0.40;99.90;;;;;;5089768;28;20044;-66
2022/12/16 03:50:03;;;;;;;34.30;22.48;;;0.40;99.90;;;;;;5090544;28;20043;-66
2022/12/16 03:52:28;;;;;;;37.22;22.80;;;0.40;99.90;;;;;;5091911;28;20042;-66
2022/12/16 03:54:54;;;;;;;32.97;22.70;;;0.40;99.90;;;;;;5072724;28;20114;-66
2022/12/16 03:57:19;;;;;;;33.38;23.27;;;0.40;99.90;;;;;;5090983;28;20057;-66
2022/12/16 03:59:45;;;;;;;34.47;23.70;;;0.40;99.90;;;;;;5110415;28;20102;-66
2022/12/16 04:02:11;;;;;;;36.40;22.80;;;0.40;99.90;;;;;;5093676;28;20122;-66
2022/12/16 04:04:36;;;;;;;34.60;24.25;;;0.30;99.90;;;;;;5093046;28;20423;-66
2022/12/16 04:07:20;;;;;;;30.35;22.38;;;0.30;99.90;;;;;;5069597;28;20486;-66
2022/12/16 04:09:50;;;;;;;35.88;22.25;;;0.30;99.90;;;;;;5088184;28;20458;-67
2022/12/16 04:26:01;;;;;;;30.02;21.33;;;0.30;99.90;;;;;;5113778;27;20047;-67
2022/12/16 04:28:27;;;;;;;26.75;19.60;;;0.40;99.90;;;;;;5079505;28;20036;-67
2022/12/16 04:30:53;;;;;;;30.95;20.92;;;0.40;99.90;;;;;;5118901;27;20106;-66
